AirNav   Air Wisconsin pilot careers
 
 556 users online  

8G8 Koons Airport
Salem, Ohio, USA

GOING TO SALEM?


FAA INFORMATION EFFECTIVE 26 APRIL 2018

Location

FAA Identifier: 8G8
Lat/Long: 40-53-00.2120N / 080-52-59.3050W
40-53.003533N / 080-52.988417W
40.8833922 / -80.8831403
(estimated)
Elevation: 1327 ft. / 404 m (estimated)
Variation: 07W (1985)
From city: 2 miles SW of SALEM, OH
Time zone: UTC -4 (UTC -5 during Standard Time)
Zip code: 44460

Airport Operations

Airport use: Open to the public
Control tower: no
ARTCC: CLEVELAND CENTER
FSS: CLEVELAND FLIGHT SERVICE STATION
NOTAMs facility: CLE (NOTAM-D service available)
Attendance: DAYLIGHT HOURS
Wind indicator: yes
Segmented circle: no

Airport Communications

CTAF: 122.9

Nearby radio navigation aids

VOR radial/distance  VOR name  Freq  Var
ACOr137/19.7AKRON VOR/DME114.4004W
BSVr075/26.4BRIGGS VOR/DME112.4004W
YNGr204/28.5YOUNGSTOWN VORTAC109.0005W
EWCr285/30.7ELLWOOD CITY VOR/DME115.8008W

 
NDB name  Hdg/Dist  Freq  Var  ID
CASTLE257/22.827209WUCP ..- -.-. .--.
CADIZ016/39.223907WCFX -.-. ..-. -..-

Airport Services

Parking: tiedowns
Airframe service: NONE
Powerplant service: NONE

Runway Information

Runway 9/27

Dimensions: 1850 x 100 ft. / 564 x 30 m
Surface: turf, in good condition
RUNWAY 9  RUNWAY 27
Latitude: 40-53.008667N40-52.998167N
Longitude: 080-53.188833W080-52.787667W
Elevation: 1327.0 ft.1327.0 ft.
Gradient: 1.4%1.4%
Traffic pattern: leftright
Runway end identifier lights: nono
Obstructions: 8 ft. crops, 125 ft. both sides of centerline
RWY 09: OBST CLNS SLOPE 7:1, DUE TO 55-FT TREE, 385-FT FM RWY 09, 55-FT L
70 ft. trees, 50 ft. from runway, 75 ft. left of centerline
RWY 27: OBST CLNS SLOPE 1:1, DUE TO 75-FT TREES 135-FT FM, RWY 27, 60-FT L

Airport Ownership and Management from official FAA records

Ownership: Privately-owned
Owner: DAVID & HARRY KOONS
1760 ST RTE 9
SALEM, OH 44460
Phone 330-337-7303
Manager: DAVID & HARRY KOONS
1760 ST RTE 9
SALEM, OH 44460
Phone 330-337-7303
ADNL CTC: 330-337-1780

Airport Operational Statistics

Aircraft based on the field: 9
Single engine airplanes: 7
Ultralights: 2
    
Aircraft operations: avg 49/week *
98% local general aviation
2% transient general aviation
<1% military
* for 12-month period ending 26 August 2017

Additional Remarks

FOR IFR CLEARANCE CTC CLEVELAND ARTCC (ZOB) 120.775/298.95 OR CALL ZOB 440-774-0489.
DEER, BIRDS & OTHER WILDLIFE ON & INVOF AIRPORT

Instrument Procedures

There are no published instrument procedures at 8G8.

Some nearby airports with instrument procedures:

38D - Salem Airpark Inc (4 nm N)
3G6 - Tri-City Airport (5 nm W)
4G4 - Youngstown Elser Metro Airport (10 nm NE)
02G - Columbiana County Airport (17 nm SE)
KTSO - Carroll County-Tolson Airport (21 nm SW)
 
Loc | Ops | Rwys | IFR | FBO | Links
Com | Nav | Svcs | Stats | Notes

AirNav Hotels Sweepstakes
 
Area around 8G8 (Koons Airport)
 
Road maps at: MapQuest Bing Google
 
Aerial photo
WARNING: Photo may not be current or correct
Aerial photo of 8G8 (Koons Airport)
Photo by Rick Hunt
Photo taken 22-Mar-2015
looking south.

Do you have a better or more recent aerial photo of Koons Airport that you would like to share? If so, please send us your photo.

 
Sectional chart

 
Airport distance calculator
Flying to Koons Airport? Find the distance to fly.

From to 8G8

Sunrise and sunset
Times for 23-May-2018
 Local
(UTC-4)
 Zulu
(UTC)
Morning civil twilight05:2809:28
Sunrise06:0010:00
Sunset20:4000:40
Evening civil twilight21:1201:12

Current date and time
Zulu (UTC)  23-May-2018 05:16:25
Local (UTC-4)  23-May-2018 01:16:25
 
METAR
KUCP 
23nm E 
230456Z AUTO 00000KT 5SM BR FEW030 OVC038 17/17 A3002 RMK AO2 SLP174 T01720172 402610172
KBVI 
23nm E 
230047Z 00000KT 10SM SCT080 18/17 A2995 RMK LTG DSNT E AND SW LAST
KYNG 
24nm NE 
230451Z 32004KT 1 1/2SM BR BKN009 OVC015 17/16 A3001 RMK AO2 SLP158 T01670156 402500161
KPOV 
26nm NW 
230456Z AUTO 32007KT 3SM OVC004 15/14 A3003 RMK AO2 T01540144 PWINO
KCAK 
26nm W 
230451Z 01003KT 5SM BR BKN013 OVC019 18/16 A3003 RMK AO2 SLP161 T01780156 402720172
KAKR 
28nm W 
230454Z AUTO 36011G18KT 4SM BR OVC007 17/15 A3003 RMK AO2 RAB34E51 CIG 005V010 SLP162 P0000 T01720150 402780172
KPHD 
35nm SW 
230453Z AUTO 30003KT 9SM BKN037 18/17 A3002 RMK AO2 SLP162 T01830172 402720178
KPIT 
36nm SE 
230451Z 31005KT 10SM FEW004 BKN026 BKN034 18/17 A2999 RMK AO2 SLP158 T01780167 402560172
KBTP 
43nm E 
230456Z AUTO 23004KT 7SM FEW009 BKN015 BKN080 16/16 A3000 RMK AO2 SLP161 T01610161 402560156
KHLG 
44nm S 
230453Z AUTO 25004KT 1/2SM R03/P6000FT FG VV002 17/16 A3000 RMK AO2 SLP155 T01720161 402560167
TAF
KBVI 
23nm E 
222154Z 2222/2318 24007KT P6SM SCT025 BKN040 TEMPO 2222/2224 27020G40KT 2SM TSRA BKN025CB FM230000 25006KT P6SM VCSH BKN025 FM230500 29005KT 4SM BR BKN010 FM231200 33006KT P6SM SCT040
KYNG 
24nm NE 
230341Z 2304/2324 36008KT 4SM BR BKN015 FM230900 34008KT P6SM SCT015 FM231200 34006KT P6SM SCT250
KCAK 
26nm W 
230340Z 2304/2324 36005KT 5SM HZ OVC012 TEMPO 2304/2307 OVC004 FM230700 36005KT P6SM BKN020 FM231200 01007KT P6SM SCT250
NOTAMs
Click for the latest NOTAMs
NOTAMs are issued by the DoD/FAA and will open in a separate window not controlled by AirNav.

 

 
 

Would you like to see your business listed on this page?

 If your business provides an interesting product or service to pilots, flight crews, aircraft, or users of the Koons Airport, you should consider listing it here.  To start the listing process, click on the button below
 
Add a business
 

Other Pages about Koons Airport

Update a link
 
Copyright © AirNav, LLC. All rights reserved. Privacy Policy  Contact